Time;durP1;ratioP1;P1;durP2;ratioP2;P2;SDS_P1;SDS_P2;PMS_P1;PMS_P2;Temp;Humidity;BMP_temperature;BMP_pressure;BME280_temperature;BME280_humidity;BME280_pressure;Samples;Min_cycle;Max_cycle;Signal;HPM_P1;HPM_P2
2022/08/08 00:02:28;;;;;;;9.27;8.25;;;11.70;99.90;;;;;;4955357;28;20043;-79
2022/08/08 00:05:11;;;;;;;9.35;8.40;;;11.60;99.90;;;;;;4953732;28;20488;-79
2022/08/08 00:07:45;;;;;;;10.00;9.00;;;11.60;99.90;;;;;;4939108;29;20054;-80
2022/08/08 00:10:16;;;;;;;11.40;9.77;;;11.50;99.90;;;;;;4954064;28;20051;-80
2022/08/08 00:13:01;;;;;;;10.32;8.70;;;11.60;99.90;;;;;;4953537;29;20043;-79
2022/08/08 00:15:52;;;;;;;9.82;8.23;;;11.50;99.90;;;;;;4954878;28;20035;-79
2022/08/08 00:18:35;;;;;;;9.20;8.10;;;11.50;99.90;;;;;;4954845;29;20466;-79
2022/08/08 00:21:03;;;;;;;10.50;8.57;;;11.40;99.90;;;;;;4955200;28;20495;-79
2022/08/08 00:24:05;;;;;;;8.73;7.88;;;11.40;99.90;;;;;;4937217;29;20043;-78
2022/08/08 00:26:34;;;;;;;8.98;8.07;;;11.40;99.90;;;;;;4928694;28;20133;-79
2022/08/08 00:29:24;;;;;;;8.20;7.18;;;11.40;99.90;;;;;;4937063;29;20488;-78
2022/08/08 00:31:54;;;;;;;8.05;7.20;;;11.30;99.90;;;;;;4937693;28;20071;-78
2022/08/08 00:37:37;;;;;;;8.88;7.97;;;11.30;99.90;;;;;;4948498;28;20542;-79
2022/08/08 00:40:19;;;;;;;9.80;8.80;;;11.20;99.90;;;;;;4947656;28;20046;-79
2022/08/08 00:43:02;;;;;;;10.30;8.55;;;11.20;99.90;;;;;;4936909;29;20407;-79
2022/08/08 00:45:43;;;;;;;10.07;9.18;;;11.10;99.90;;;;;;4953137;29;20162;-78
2022/08/08 00:48:49;;;;;;;9.27;8.38;;;11.10;99.90;;;;;;4948364;29;20051;-78
2022/08/08 00:51:30;;;;;;;9.07;8.15;;;11.10;99.90;;;;;;4954367;29;20312;-78
2022/08/08 00:54:23;;;;;;;8.80;7.55;;;11.00;99.90;;;;;;4953327;28;20047;-78
2022/08/08 00:57:00;;;;;;;8.40;7.57;;;11.00;99.90;;;;;;4951629;28;20039;-79
2022/08/08 00:59:51;;;;;;;8.93;8.13;;;11.00;99.90;;;;;;4953665;28;20047;-79
2022/08/08 01:02:22;;;;;;;9.93;8.85;;;10.90;99.90;;;;;;4933187;29;20035;-78
2022/08/08 01:05:25;;;;;;;8.10;7.28;;;10.90;99.90;;;;;;4952266;28;20086;-78
2022/08/08 01:08:38;;;;;;;7.90;7.07;;;10.90;99.90;;;;;;4937894;29;20039;-79
2022/08/08 01:11:16;;;;;;;8.13;7.43;;;10.80;99.90;;;;;;4918703;29;20467;-78
2022/08/08 01:13:58;;;;;;;8.02;7.15;;;10.80;99.90;;;;;;4952936;29;20039;-79
2022/08/08 01:16:46;;;;;;;7.85;7.15;;;10.80;99.90;;;;;;4953783;28;20490;-79
2022/08/08 01:19:43;;;;;;;7.97;7.15;;;10.80;99.90;;;;;;4937748;29;20054;-79
2022/08/08 01:22:33;;;;;;;7.50;6.68;;;10.80;99.90;;;;;;4953185;29;20050;-79
2022/08/08 01:25:27;;;;;;;7.10;6.40;;;10.70;99.90;;;;;;4947093;28;20047;-80
2022/08/08 01:27:59;;;;;;;7.80;7.07;;;10.60;99.90;;;;;;4952831;28;20511;-80
2022/08/08 01:31:06;;;;;;;8.07;7.28;;;10.70;99.90;;;;;;4952153;29;20045;-80
2022/08/08 01:34:09;;;;;;;6.82;6.13;;;10.60;99.90;;;;;;4952585;29;20031;-79
2022/08/08 01:37:18;;;;;;;7.88;7.13;;;10.60;99.90;;;;;;4937581;29;20381;-79
2022/08/08 01:40:09;;;;;;;8.10;7.00;;;10.50;99.90;;;;;;4930239;29;20058;-80
2022/08/08 01:42:41;;;;;;;7.43;6.60;;;10.50;99.90;;;;;;4967932;28;20046;-80
2022/08/08 01:45:32;;;;;;;7.20;6.50;;;10.50;99.90;;;;;;4952493;29;20126;-80
2022/08/08 01:48:22;;;;;;;6.88;6.18;;;10.50;99.90;;;;;;4941163;29;20039;-79
2022/08/08 01:51:16;;;;;;;7.97;7.18;;;10.40;99.90;;;;;;4933999;29;20093;-80
2022/08/08 01:53:55;;;;;;;7.60;6.90;;;10.40;99.90;;;;;;4920523;29;20047;-79
2022/08/08 01:56:29;;;;;;;9.45;8.45;;;10.40;99.90;;;;;;4953308;28;20070;-79
2022/08/08 01:59:22;;;;;;;8.45;7.50;;;10.40;99.90;;;;;;4920405;29;20039;-80
2022/08/08 02:02:06;;;;;;;;;;;10.40;99.90;;;;;;4936296;29;20094;-79
2022/08/08 02:04:45;;;;;;;9.52;8.63;;;10.40;99.90;;;;;;4951926;28;20283;-80
2022/08/08 02:07:22;;;;;;;9.02;8.13;;;10.40;99.90;;;;;;4936653;29;20077;-79
2022/08/08 02:09:57;;;;;;;8.80;7.90;;;10.30;99.90;;;;;;4935550;29;20423;-79
2022/08/08 02:12:40;;;;;;;9.20;8.00;;;10.30;99.90;;;;;;4953005;29;20043;-78
2022/08/08 02:15:19;;;;;;;8.63;7.43;;;10.30;99.90;;;;;;4936584;29;20047;-79
2022/08/08 02:18:12;;;;;;;7.93;7.13;;;10.30;99.90;;;;;;4952773;29;20043;-79
2022/08/08 02:23:56;;;;;;;9.13;7.63;;;10.30;99.90;;;;;;4951230;28;20082;-79
2022/08/08 02:26:34;;;;;;;9.20;8.30;;;10.30;99.90;;;;;;4952564;28;20038;-79
2022/08/08 02:29:35;;;;;;;9.88;8.65;;;10.30;99.90;;;;;;4920977;29;20039;-79
2022/08/08 02:32:11;;;;;;;8.80;7.88;;;10.20;99.90;;;;;;4889502;29;20040;-79
2022/08/08 02:34:57;;;;;;;8.95;7.90;;;10.20;99.90;;;;;;4934274;28;20129;-79
2022/08/08 02:37:28;;;;;;;10.27;9.25;;;10.20;99.90;;;;;;4952195;28;20046;-79
2022/08/08 02:40:03;;;;;;;9.48;8.40;;;10.20;99.90;;;;;;4935612;29;20441;-79
2022/08/08 02:42:45;;;;;;;8.90;8.02;;;10.20;99.90;;;;;;4952069;29;20082;-79
2022/08/08 02:45:42;;;;;;;8.10;7.28;;;10.20;99.90;;;;;;4935524;29;20047;-79
2022/08/08 02:48:35;;;;;;;7.55;6.75;;;10.20;99.90;;;;;;4946238;28;20055;-79
2022/08/08 02:51:34;;;;;;;6.85;6.25;;;10.10;99.90;;;;;;4951056;29;20118;-79
2022/08/08 02:54:32;;;;;;;6.88;6.13;;;10.10;99.90;;;;;;4934302;29;20133;-79
2022/08/08 02:57:07;;;;;;;7.07;6.20;;;10.10;99.90;;;;;;4944093;28;20035;-79
2022/08/08 02:59:54;;;;;;;7.25;6.55;;;10.00;99.90;;;;;;4950549;28;20411;-79
2022/08/08 03:02:33;;;;;;;7.85;7.05;;;10.00;99.90;;;;;;4930146;29;20126;-79
2022/08/08 03:05:02;;;;;;;7.70;6.45;;;10.00;99.90;;;;;;4951507;28;20495;-79
2022/08/08 03:07:54;;;;;;;7.93;7.03;;;10.00;99.90;;;;;;4936008;29;20043;-79
2022/08/08 03:10:58;;;;;;;6.45;5.85;;;9.90;99.90;;;;;;4925486;29;20138;-79
2022/08/08 03:13:35;;;;;;;7.45;5.53;;;10.00;99.90;;;;;;4948468;29;20043;-79
2022/08/08 03:16:32;;;;;;;6.35;5.63;;;9.90;99.90;;;;;;4951020;28;20121;-79
2022/08/08 03:19:23;;;;;;;6.57;5.65;;;9.90;99.90;;;;;;4930468;29;20126;-80
2022/08/08 03:21:48;;;;;;;6.00;5.35;;;9.90;99.90;;;;;;4937273;29;20723;-80
2022/08/08 03:24:18;;;;;;;6.50;5.72;;;9.80;99.90;;;;;;4935367;28;20154;-80
2022/08/08 03:26:50;;;;;;;6.35;5.75;;;9.80;99.90;;;;;;4952218;29;20054;-80
2022/08/08 03:29:20;;;;;;;8.07;7.03;;;9.80;99.90;;;;;;4935366;29;20055;-80
2022/08/08 03:34:34;;;;;;;7.57;6.68;;;9.80;99.90;;;;;;4951062;28;20170;-79
2022/08/08 03:37:00;;;;;;;6.68;5.97;;;9.80;99.90;;;;;;4951865;29;20047;-79
2022/08/08 03:39:25;;;;;;;7.25;6.10;;;9.70;99.90;;;;;;4935347;29;20043;-79
2022/08/08 03:41:51;;;;;;;6.53;5.93;;;9.70;99.90;;;;;;4951545;29;20039;-80
2022/08/08 03:44:16;;;;;;;6.85;6.10;;;9.70;99.90;;;;;;4953220;28;20050;-80
2022/08/08 03:46:46;;;;;;;7.18;6.47;;;9.70;99.90;;;;;;4955475;29;20174;-79
2022/08/08 03:49:24;;;;;;;6.72;6.03;;;9.70;99.90;;;;;;4954679;28;20043;-79
2022/08/08 03:51:54;;;;;;;7.05;6.35;;;9.70;99.90;;;;;;4939373;29;20036;-79
2022/08/08 03:54:21;;;;;;;6.55;5.95;;;9.60;99.90;;;;;;4954517;28;20070;-79
2022/08/08 03:56:46;;;;;;;6.70;6.10;;;9.60;99.90;;;;;;4953802;29;20078;-79
2022/08/08 03:59:12;;;;;;;6.30;5.70;;;9.60;99.90;;;;;;4954371;28;20121;-79
2022/08/08 04:01:40;;;;;;;6.63;5.90;;;9.60;99.90;;;;;;4938184;29;20039;-79
2022/08/08 04:04:06;;;;;;;6.63;6.00;;;9.60;99.90;;;;;;4938452;29;20062;-79
2022/08/08 04:06:33;;;;;;;7.00;6.03;;;9.60;99.90;;;;;;4954764;28;20407;-79
2022/08/08 04:09:00;;;;;;;5.25;4.75;;;9.60;99.90;;;;;;4954331;29;20043;-79
2022/08/08 04:11:26;;;;;;;7.35;6.65;;;9.60;99.90;;;;;;4953960;28;20039;-79
2022/08/08 04:13:52;;;;;;;7.57;6.40;;;9.60;99.90;;;;;;4954196;29;20079;-79
2022/08/08 04:16:19;;;;;;;8.48;6.75;;;9.50;99.90;;;;;;4955130;28;20067;-80
2022/08/08 04:18:47;;;;;;;8.43;5.68;;;9.60;99.90;;;;;;4954824;29;20142;-80
2022/08/08 04:21:14;;;;;;;6.65;5.60;;;9.60;99.90;;;;;;4937390;29;20035;-79
2022/08/08 04:23:39;;;;;;;8.90;6.70;;;9.50;99.90;;;;;;4953452;29;20630;-79
2022/08/08 04:26:06;;;;;;;6.50;5.88;;;9.50;99.90;;;;;;4954799;29;20079;-79
2022/08/08 04:28:32;;;;;;;6.32;5.72;;;9.50;99.90;;;;;;4953758;29;20121;-79
2022/08/08 04:30:58;;;;;;;6.68;5.95;;;9.50;99.90;;;;;;4954174;29;20039;-79
2022/08/08 04:33:23;;;;;;;7.43;6.03;;;9.50;99.90;;;;;;4954583;29;20182;-79
2022/08/08 04:35:49;;;;;;;6.88;6.03;;;9.50;99.90;;;;;;4954288;28;20051;-79
2022/08/08 04:38:14;;;;;;;6.40;5.65;;;9.50;99.90;;;;;;4952794;28;20031;-79
2022/08/08 04:40:40;;;;;;;6.38;5.50;;;9.60;99.90;;;;;;4954525;28;20547;-79
2022/08/08 04:43:06;;;;;;;8.00;5.55;;;9.60;99.90;;;;;;4938690;29;20129;-79
2022/08/08 04:45:32;;;;;;;7.10;6.05;;;9.60;99.90;;;;;;4938522;29;20066;-80
2022/08/08 04:47:58;;;;;;;7.20;5.80;;;9.60;99.90;;;;;;4953316;29;20043;-80
2022/08/08 04:50:25;;;;;;;6.63;5.88;;;9.60;99.90;;;;;;4945489;29;20074;-79
2022/08/08 04:52:51;;;;;;;6.60;5.97;;;9.60;99.90;;;;;;4954397;28;20039;-80
2022/08/08 04:55:17;;;;;;;8.02;7.22;;;9.60;99.90;;;;;;4953794;28;20051;-80
2022/08/08 04:57:42;;;;;;;7.75;6.72;;;9.70;99.90;;;;;;4938453;29;20042;-80
2022/08/08 05:00:09;;;;;;;7.68;6.88;;;9.70;99.90;;;;;;4936983;29;20043;-79
2022/08/08 05:02:34;;;;;;;7.85;6.47;;;9.70;99.90;;;;;;4954370;29;20058;-79
2022/08/08 05:05:00;;;;;;;7.60;6.90;;;9.70;99.90;;;;;;4935889;29;20031;-80
2022/08/08 05:07:26;;;;;;;8.40;7.50;;;9.80;99.90;;;;;;4953228;29;20103;-80
2022/08/08 05:09:52;;;;;;;9.10;7.97;;;9.80;99.90;;;;;;4936714;29;20039;-80
2022/08/08 05:12:17;;;;;;;9.52;8.52;;;9.90;99.90;;;;;;4953370;28;20031;-80
2022/08/08 05:14:43;;;;;;;8.63;7.82;;;10.00;99.90;;;;;;4953935;28;20050;-80
2022/08/08 05:17:09;;;;;;;8.48;7.57;;;10.00;99.90;;;;;;4951982;28;20037;-80
2022/08/08 05:19:36;;;;;;;9.20;8.05;;;10.20;99.90;;;;;;4953000;29;20035;-80
2022/08/08 05:22:03;;;;;;;8.45;7.63;;;10.20;99.90;;;;;;4953025;29;20047;-80
2022/08/08 05:24:30;;;;;;;8.60;7.80;;;10.20;99.90;;;;;;4953574;28;20043;-80
2022/08/08 05:26:56;;;;;;;8.77;7.80;;;10.30;99.90;;;;;;4953145;29;20098;-80
2022/08/08 05:29:22;;;;;;;9.30;8.40;;;10.40;99.90;;;;;;4937085;29;20130;-79
2022/08/08 05:31:48;;;;;;;10.25;9.20;;;10.50;99.90;;;;;;4953464;29;20474;-80
2022/08/08 05:34:38;;;;;;;13.20;9.35;;;10.60;99.90;;;;;;4953515;29;20032;-79
2022/08/08 05:37:05;;;;;;;11.38;10.18;;;10.70;99.90;;;;;;4952486;29;20035;-79
2022/08/08 05:39:30;;;;;;;10.93;9.85;;;10.90;99.90;;;;;;4952954;29;20130;-80
2022/08/08 05:41:57;;;;;;;12.05;10.95;;;11.00;99.90;;;;;;4937886;29;20134;-80
2022/08/08 05:44:28;;;;;;;14.02;10.93;;;11.10;99.90;;;;;;4953810;28;20098;-79
2022/08/08 05:46:55;;;;;;;13.13;11.25;;;11.20;99.90;;;;;;4934012;29;20038;-79
2022/08/08 05:49:21;;;;;;;11.80;10.55;;;11.40;99.90;;;;;;4949166;29;20051;-80
2022/08/08 05:51:47;;;;;;;13.05;11.80;;;11.50;99.90;;;;;;4936237;29;20087;-78
2022/08/08 05:54:14;;;;;;;14.75;12.30;;;11.60;99.90;;;;;;4952799;29;20772;-80
2022/08/08 05:56:42;;;;;;;12.45;10.80;;;11.70;99.90;;;;;;4937244;29;20043;-82
2022/08/08 05:59:15;;;;;;;12.05;10.85;;;11.80;99.90;;;;;;4952999;29;20045;-77
2022/08/08 06:01:44;;;;;;;13.98;12.57;;;11.90;99.90;;;;;;4953018;29;20415;-76
2022/08/08 06:04:11;;;;;;;12.23;10.85;;;12.00;99.90;;;;;;4952930;28;20496;-78
2022/08/08 06:06:43;;;;;;;12.07;10.88;;;12.10;99.90;;;;;;4936811;29;20076;-77
2022/08/08 06:09:09;;;;;;;12.43;11.20;;;12.30;99.90;;;;;;4952306;29;20047;-79
2022/08/08 06:11:35;;;;;;;15.45;12.43;;;12.30;99.90;;;;;;4950596;29;20458;-78
2022/08/08 06:14:04;;;;;;;14.23;12.35;;;12.50;99.90;;;;;;4937945;29;20050;-77
2022/08/08 06:16:37;;;;;;;14.63;13.00;;;12.60;99.90;;;;;;4949429;28;20043;-78
2022/08/08 06:19:04;;;;;;;14.95;13.35;;;12.70;99.90;;;;;;4933955;29;20048;-78
2022/08/08 06:21:30;;;;;;;14.23;12.82;;;12.90;99.90;;;;;;4933659;29;20048;-78
2022/08/08 06:23:56;;;;;;;13.60;12.30;;;13.00;99.90;;;;;;4934364;29;20132;-76
2022/08/08 06:26:24;;;;;;;14.10;12.52;;;13.20;99.90;;;;;;4936848;29;20051;-76
2022/08/08 06:29:04;;;;;;;13.00;11.70;;;13.30;99.90;;;;;;4936557;29;20401;-80
2022/08/08 06:31:35;;;;;;;15.77;12.52;;;13.40;99.90;;;;;;4969011;28;20046;-80
2022/08/08 06:34:07;;;;;;;13.38;12.02;;;13.50;99.90;;;;;;4936340;29;20031;-80
2022/08/08 06:36:41;;;;;;;14.18;12.57;;;13.70;99.90;;;;;;4952233;29;20082;-78
2022/08/08 06:39:08;;;;;;;11.50;10.40;;;13.80;99.90;;;;;;4929946;29;20393;-78
2022/08/08 06:41:42;;;;;;;15.63;10.32;;;14.00;99.90;;;;;;4933709;29;20043;-78
2022/08/08 06:44:10;;;;;;;13.02;10.93;;;14.10;99.90;;;;;;4933400;29;20491;-79
2022/08/08 06:46:37;;;;;;;11.98;10.75;;;14.20;99.90;;;;;;4949170;28;20047;-80
2022/08/08 06:49:03;;;;;;;10.55;8.65;;;14.40;99.90;;;;;;4917470;29;20040;-79
2022/08/08 06:51:29;;;;;;;13.13;8.93;;;14.60;99.90;;;;;;4933462;29;20036;-79
2022/08/08 06:53:58;;;;;;;10.00;7.38;;;14.80;99.90;;;;;;4949382;29;20039;-81
2022/08/08 06:56:24;;;;;;;10.13;6.97;;;15.00;99.90;;;;;;4932823;29;20035;-80
2022/08/08 06:58:49;;;;;;;7.68;6.80;;;15.10;99.90;;;;;;4951834;29;20049;-81
2022/08/08 07:01:16;;;;;;;7.82;6.05;;;15.20;99.90;;;;;;4935954;29;20451;-84
2022/08/08 07:04:02;;;;;;;7.90;6.50;;;15.30;99.90;;;;;;4935828;29;20047;-83
2022/08/08 07:06:32;;;;;;;7.00;5.50;;;15.30;99.90;;;;;;4951401;28;20050;-83
2022/08/08 07:09:06;;;;;;;8.98;5.40;;;15.50;99.90;;;;;;4934448;29;20045;-82
2022/08/08 07:11:38;;;;;;;7.70;5.43;;;15.60;99.90;;;;;;4952485;29;20078;-83
2022/08/08 07:14:06;;;;;;;5.82;4.30;;;15.60;99.90;;;;;;4936114;29;20448;-83
2022/08/08 07:16:38;;;;;;;5.70;4.20;;;15.60;99.90;;;;;;4966867;28;20039;-83
2022/08/08 07:19:26;;;;;;;6.30;4.22;;;15.90;99.90;;;;;;4953790;28;20114;-83
2022/08/08 07:22:01;;;;;;;5.10;3.65;;;16.00;99.90;;;;;;4940591;29;20404;-84
2022/08/08 07:24:42;;;;;;;7.28;4.07;;;16.10;99.90;;;;;;4955197;28;20042;-83
2022/08/08 07:27:12;;;;;;;6.97;3.05;;;16.20;99.90;;;;;;4956357;29;20039;-83
2022/08/08 07:29:38;;;;;;;5.72;2.67;;;16.30;99.90;;;;;;4939878;29;20065;-82
2022/08/08 07:32:06;;;;;;;5.60;2.88;;;16.40;99.90;;;;;;4940183;29;20560;-82
2022/08/08 07:34:33;;;;;;;7.05;3.20;;;16.50;99.90;;;;;;4955004;28;20066;-83
2022/08/08 07:37:01;;;;;;;5.15;2.70;;;16.60;99.90;;;;;;4939769;29;20365;-83
2022/08/08 07:39:30;;;;;;;4.82;2.70;;;16.70;99.90;;;;;;4939837;29;20043;-83
2022/08/08 07:41:59;;;;;;;5.75;2.80;;;16.70;99.90;;;;;;4936574;29;20068;-82
2022/08/08 07:44:26;;;;;;;5.55;2.60;;;17.00;99.90;;;;;;4939326;28;21978;-82
2022/08/08 07:46:53;;;;;;;3.70;2.38;;;17.00;99.90;;;;;;4955496;29;20134;-81
2022/08/08 07:49:18;;;;;;;4.10;2.00;;;17.10;99.90;;;;;;4940097;29;20044;-83
2022/08/08 07:51:44;;;;;;;3.97;1.88;;;17.30;99.90;;;;;;4955320;29;20058;-84
2022/08/08 07:54:18;;;;;;;4.57;1.90;;;17.40;99.90;;;;;;4939557;29;20035;-81
2022/08/08 07:57:02;;;;;;;3.88;2.00;;;17.60;99.90;;;;;;4938378;29;20039;-82
2022/08/08 07:59:34;;;;;;;6.80;1.95;;;17.80;99.90;;;;;;4931744;29;20090;-82
2022/08/08 08:02:05;;;;;;;5.93;2.10;;;18.00;99.90;;;;;;4938829;29;20062;-82
2022/08/08 08:04:38;;;;;;;5.28;1.65;;;18.30;99.90;;;;;;4952216;28;20039;-82
2022/08/08 08:07:04;;;;;;;3.47;1.63;;;18.50;99.90;;;;;;4938098;29;20047;-81
2022/08/08 08:09:38;;;;;;;3.88;1.58;;;18.60;99.90;;;;;;4944696;29;20052;-82
2022/08/08 08:12:04;;;;;;;4.15;1.60;;;18.80;99.90;;;;;;4938762;29;20027;-82
2022/08/08 08:14:53;;;;;;;3.30;1.40;;;18.90;99.90;;;;;;4938866;28;20524;-82
2022/08/08 08:17:19;;;;;;;3.80;1.63;;;19.10;99.90;;;;;;4919933;29;20090;-81
2022/08/08 08:19:48;;;;;;;4.15;1.67;;;19.20;99.90;;;;;;4952883;29;20047;-82
2022/08/08 08:22:15;;;;;;;3.33;1.38;;;19.20;99.90;;;;;;4935634;29;20083;-83
2022/08/08 08:24:43;;;;;;;3.35;1.50;;;19.10;99.90;;;;;;4954494;28;20043;-82
2022/08/08 08:27:09;;;;;;;3.72;1.60;;;19.10;99.90;;;;;;4936368;29;20599;-82
2022/08/08 08:29:35;;;;;;;3.10;1.33;;;19.40;99.90;;;;;;4938286;28;20069;-82
2022/08/08 08:32:00;;;;;;;2.63;1.33;;;20.30;99.90;;;;;;4952001;29;20122;-82
2022/08/08 08:34:26;;;;;;;2.70;1.08;;;21.00;99.90;;;;;;4935664;28;20032;-82
2022/08/08 08:36:51;;;;;;;2.60;1.30;;;21.90;99.90;;;;;;4954776;29;20090;-82
2022/08/08 08:39:17;;;;;;;3.75;1.10;;;22.80;99.90;;;;;;4935642;29;20116;-82
2022/08/08 08:41:44;;;;;;;2.30;1.20;;;23.70;99.90;;;;;;4934416;29;20393;-82
2022/08/08 08:44:10;;;;;;;2.28;0.95;;;24.50;99.90;;;;;;4937482;29;20137;-81
2022/08/08 08:46:36;;;;;;;2.28;1.02;;;24.90;99.90;;;;;;4920684;29;20095;-81
2022/08/08 08:49:02;;;;;;;2.65;1.25;;;25.00;99.60;;;;;;4940130;29;20066;-81
2022/08/08 08:51:30;;;;;;;3.10;1.45;;;24.50;92.50;;;;;;4936312;29;20045;-81
2022/08/08 08:53:58;;;;;;;3.38;2.00;;;24.00;93.50;;;;;;4951922;29;20518;-81
2022/08/08 08:56:25;;;;;;;3.30;1.20;;;23.70;91.70;;;;;;4949874;28;20043;-81
2022/08/08 08:58:51;;;;;;;2.20;1.20;;;23.40;94.50;;;;;;4927598;29;20067;-81
2022/08/08 09:01:24;;;;;;;3.20;1.27;;;23.20;93.60;;;;;;4943378;29;20035;-81
2022/08/08 09:03:51;;;;;;;3.75;1.00;;;23.00;94.70;;;;;;4953728;29;20535;-81
2022/08/08 09:06:21;;;;;;;3.55;1.35;;;22.80;94.90;;;;;;4936958;29;20045;-82
2022/08/08 09:08:52;;;;;;;2.33;0.82;;;22.50;94.70;;;;;;4951657;29;20622;-80
2022/08/08 09:11:18;;;;;;;4.93;1.10;;;22.30;94.60;;;;;;4938507;29;20038;-80
2022/08/08 09:13:46;;;;;;;2.78;0.90;;;22.40;97.40;;;;;;4946140;29;20040;-83
2022/08/08 09:16:11;;;;;;;1.80;0.90;;;23.00;96.30;;;;;;4945707;28;20110;-82
2022/08/08 09:18:42;;;;;;;1.98;1.00;;;23.90;96.10;;;;;;4925857;29;20126;-81
2022/08/08 09:21:08;;;;;;;2.92;0.65;;;24.80;94.70;;;;;;4938495;29;20476;-83
2022/08/08 09:23:35;;;;;;;2.22;0.70;;;25.50;93.10;;;;;;4953725;29;20040;-81
2022/08/08 09:26:12;;;;;;;3.55;0.82;;;26.10;91.70;;;;;;4953195;28;20107;-82
2022/08/08 09:28:39;;;;;;;1.92;0.75;;;26.40;84.60;;;;;;4935090;29;20567;-83
2022/08/08 09:31:11;;;;;;;2.22;0.98;;;26.60;82.10;;;;;;4937763;29;20079;-82
2022/08/08 09:33:41;;;;;;;3.33;0.82;;;26.40;78.90;;;;;;4953614;29;20074;-82
2022/08/08 09:36:12;;;;;;;2.75;0.70;;;26.30;78.60;;;;;;4952985;28;20035;-82
2022/08/08 09:38:51;;;;;;;2.78;0.90;;;26.30;76.60;;;;;;4937142;29;20118;-82
2022/08/08 09:41:20;;;;;;;1.38;0.60;;;26.50;72.90;;;;;;4936750;29;20043;-79
2022/08/08 09:43:53;;;;;;;1.70;0.70;;;26.30;75.20;;;;;;4937935;29;20086;-80
2022/08/08 09:46:22;;;;;;;2.33;0.60;;;26.20;76.00;;;;;;4936747;29;20042;-80
2022/08/08 09:48:48;;;;;;;1.88;0.70;;;26.50;76.90;;;;;;4952685;29;20490;-81
2022/08/08 09:51:15;;;;;;;2.60;0.60;;;26.90;75.50;;;;;;4937563;29;20039;-80
2022/08/08 09:53:51;;;;;;;2.03;0.70;;;27.10;73.80;;;;;;4969139;28;20039;-80
2022/08/08 09:56:17;;;;;;;1.83;0.60;;;26.80;69.20;;;;;;4938859;28;20052;-80
2022/08/08 09:59:04;;;;;;;0.82;0.40;;;26.50;71.70;;;;;;4949644;29;20047;-81
2022/08/08 10:01:31;;;;;;;1.52;0.80;;;26.60;70.60;;;;;;4937851;29;20043;-79
2022/08/08 10:03:58;;;;;;;0.80;0.60;;;26.90;71.30;;;;;;4952657;29;20499;-80
2022/08/08 10:06:24;;;;;;;1.95;0.70;;;27.40;70.60;;;;;;4950318;29;20407;-79
2022/08/08 10:08:52;;;;;;;1.55;0.50;;;27.60;68.10;;;;;;4952121;28;20046;-80
2022/08/08 10:11:22;;;;;;;2.35;0.57;;;27.80;68.80;;;;;;4936467;29;20035;-79
2022/08/08 10:14:06;;;;;;;0.90;0.63;;;28.10;67.80;;;;;;4952700;29;20039;-80
2022/08/08 10:16:40;;;;;;;1.75;0.70;;;28.10;61.10;;;;;;4949957;29;20487;-80
2022/08/08 10:19:08;;;;;;;4.03;0.68;;;27.70;59.40;;;;;;4952986;29;20050;-80
2022/08/08 10:21:35;;;;;;;1.42;0.50;;;27.00;61.40;;;;;;4937052;29;20039;-81
2022/08/08 10:24:10;;;;;;;0.93;0.40;;;26.70;63.20;;;;;;4937294;29;20050;-80
2022/08/08 10:26:51;;;;;;;1.33;0.32;;;26.70;60.40;;;;;;4942058;29;20043;-78
2022/08/08 10:29:44;;;;;;;0.57;0.40;;;26.80;59.10;;;;;;4933669;29;20496;-80
2022/08/08 10:32:31;;;;;;;1.23;0.40;;;26.90;61.60;;;;;;4918324;29;20071;-83
2022/08/08 10:34:58;;;;;;;1.13;0.50;;;27.30;63.10;;;;;;4957223;28;20500;-81
2022/08/08 10:37:34;;;;;;;2.28;0.57;;;27.70;62.70;;;;;;4935907;29;20058;-80
2022/08/08 10:40:12;;;;;;;1.88;0.55;;;28.00;63.10;;;;;;4943712;29;20411;-79
2022/08/08 10:42:39;;;;;;;1.10;0.52;;;28.30;63.60;;;;;;4952811;29;20054;-80
2022/08/08 10:45:06;;;;;;;0.95;0.40;;;28.40;62.70;;;;;;4951612;28;20518;-79
2022/08/08 10:47:32;;;;;;;0.30;0.30;;;28.30;61.10;;;;;;4943967;29;20411;-79
2022/08/08 10:50:02;;;;;;;0.73;0.50;;;28.10;59.30;;;;;;4936570;29;20035;-79
2022/08/08 10:52:36;;;;;;;0.98;0.60;;;27.60;58.90;;;;;;4952683;29;20046;-79
2022/08/08 10:55:12;;;;;;;3.63;0.70;;;27.00;59.00;;;;;;4935984;29;20487;-78
2022/08/08 10:57:40;;;;;;;3.33;0.73;;;26.40;59.90;;;;;;4936042;29;20032;-77
2022/08/08 11:00:08;;;;;;;1.02;0.40;;;25.90;61.50;;;;;;4952359;29;20512;-78
2022/08/08 11:02:34;;;;;;;0.80;0.50;;;26.00;62.40;;;;;;4952489;29;20063;-82
2022/08/08 11:05:03;;;;;;;1.23;0.40;;;26.30;61.90;;;;;;4935881;29;20035;-81
2022/08/08 11:07:36;;;;;;;1.77;0.68;;;26.80;62.20;;;;;;4935945;29;20043;-84
2022/08/08 11:10:08;;;;;;;1.67;0.57;;;27.50;62.00;;;;;;4951574;29;20147;-79
2022/08/08 11:12:44;;;;;;;1.08;0.60;;;27.90;60.20;;;;;;4936398;29;20035;-78
2022/08/08 11:15:13;;;;;;;2.15;0.60;;;27.80;60.50;;;;;;4951939;29;20555;-80
2022/08/08 11:17:40;;;;;;;0.60;0.50;;;27.50;60.60;;;;;;4952036;29;20114;-81
2022/08/08 11:20:16;;;;;;;1.15;0.73;;;27.50;61.20;;;;;;4951910;29;20105;-79
2022/08/08 11:22:45;;;;;;;2.53;0.70;;;27.70;59.60;;;;;;4936167;29;20047;-81
2022/08/08 11:25:10;;;;;;;0.93;0.60;;;27.50;60.30;;;;;;4951731;28;20042;-81
2022/08/08 11:27:37;;;;;;;1.75;0.45;;;27.20;61.40;;;;;;4951872;29;20043;-81
2022/08/08 11:30:09;;;;;;;1.30;0.60;;;27.00;62.60;;;;;;4950189;29;20043;-81
2022/08/08 11:32:37;;;;;;;2.30;0.70;;;26.80;61.50;;;;;;4950515;29;20444;-81
2022/08/08 11:35:05;;;;;;;1.75;0.73;;;26.40;62.00;;;;;;4949705;28;20449;-81
2022/08/08 11:37:32;;;;;;;3.03;0.70;;;26.10;62.20;;;;;;4934233;29;20039;-81
2022/08/08 11:40:00;;;;;;;1.50;0.80;;;25.80;63.00;;;;;;4934801;29;20039;-81
2022/08/08 11:42:26;;;;;;;3.67;1.70;;;25.50;62.80;;;;;;4950939;29;20365;-81
2022/08/08 11:44:54;;;;;;;2.10;0.98;;;25.20;63.30;;;;;;4934132;29;20043;-81
2022/08/08 11:47:22;;;;;;;2.53;1.15;;;24.90;63.80;;;;;;4949476;29;20087;-81
2022/08/08 11:49:53;;;;;;;4.00;0.80;;;24.60;65.00;;;;;;4951773;28;20514;-81
2022/08/08 11:52:20;;;;;;;1.38;0.88;;;24.40;66.20;;;;;;4935893;29;20062;-82
2022/08/08 11:54:45;;;;;;;1.67;0.70;;;24.40;66.80;;;;;;4943354;29;20429;-81
2022/08/08 11:57:17;;;;;;;1.90;0.60;;;24.50;66.60;;;;;;4935517;29;20032;-81
2022/08/08 11:59:57;;;;;;;1.50;0.70;;;24.50;67.30;;;;;;4935949;29;20049;-81
2022/08/08 12:02:25;;;;;;;1.90;0.70;;;24.70;66.90;;;;;;4950434;29;20118;-81
2022/08/08 12:05:11;;;;;;;1.58;0.70;;;25.10;66.60;;;;;;4952699;28;20091;-81
2022/08/08 12:07:48;;;;;;;1.08;0.60;;;25.80;66.30;;;;;;4938890;29;20051;-81
2022/08/08 12:10:16;;;;;;;7.30;0.80;;;26.40;65.50;;;;;;4953831;29;20510;-81
2022/08/08 12:12:46;;;;;;;3.47;0.80;;;27.00;65.20;;;;;;4954564;29;20403;-81
2022/08/08 12:15:25;;;;;;;1.48;0.63;;;27.20;62.80;;;;;;4939406;29;20039;-81
2022/08/08 12:17:50;;;;;;;1.55;0.60;;;27.00;60.80;;;;;;4938206;29;20075;-81
2022/08/08 12:20:16;;;;;;;2.42;0.70;;;26.70;62.90;;;;;;4939192;29;20459;-81
2022/08/08 12:22:48;;;;;;;0.45;0.40;;;26.90;63.90;;;;;;4939290;29;20077;-80
2022/08/08 12:25:25;;;;;;;2.25;0.80;;;27.20;63.90;;;;;;4939018;29;20448;-81
2022/08/08 12:27:52;;;;;;;1.92;0.70;;;27.70;63.30;;;;;;4937222;29;20031;-80
2022/08/08 12:30:29;;;;;;;4.28;0.95;;;28.10;62.70;;;;;;4938609;29;20035;-81
2022/08/08 12:32:58;;;;;;;0.88;0.55;;;28.10;60.20;;;;;;4955141;29;20035;-82
2022/08/08 12:35:26;;;;;;;1.30;0.70;;;28.00;61.10;;;;;;4937216;29;20031;-81
2022/08/08 12:38:06;;;;;;;1.88;1.08;;;28.20;60.10;;;;;;4953505;28;20038;-81
2022/08/08 12:40:47;;;;;;;2.03;1.10;;;28.10;60.30;;;;;;4938235;29;20046;-81
2022/08/08 12:43:14;;;;;;;2.70;0.80;;;27.80;60.50;;;;;;4954620;28;20039;-82
2022/08/08 12:45:44;;;;;;;1.75;0.80;;;27.20;59.70;;;;;;4954509;28;20039;-80
2022/08/08 12:48:21;;;;;;;1.38;0.80;;;26.50;61.90;;;;;;4937764;29;20043;-82
2022/08/08 12:50:55;;;;;;;1.98;0.57;;;25.90;63.70;;;;;;4936984;29;20054;-81
2022/08/08 12:53:26;;;;;;;2.85;0.85;;;25.80;62.40;;;;;;4938325;29;20105;-81
2022/08/08 12:55:57;;;;;;;2.42;0.90;;;25.60;62.40;;;;;;4954520;28;20630;-81
2022/08/08 12:58:24;;;;;;;2.03;0.80;;;25.60;63.20;;;;;;4938018;29;20073;-81
2022/08/08 13:00:50;;;;;;;1.75;0.73;;;25.60;63.80;;;;;;4937473;29;20043;-80
2022/08/08 13:03:37;;;;;;;2.10;1.00;;;26.00;64.00;;;;;;4938491;29;20035;-84
2022/08/08 13:06:44;;;;;;;;;;;;;;;;;;;;;
2022/08/08 13:09:16;;;;;;;2.42;0.77;;;26.20;63.60;;;;;;4953442;28;20397;-84
2022/08/08 13:11:52;;;;;;;1.38;0.68;;;26.40;64.10;;;;;;4953995;29;20043;-83
2022/08/08 13:14:17;;;;;;;1.08;0.60;;;26.90;64.60;;;;;;4937998;28;20102;-83
2022/08/08 13:16:44;;;;;;;0.90;0.60;;;27.60;63.30;;;;;;4953337;28;20039;-84
2022/08/08 13:19:10;;;;;;;1.92;0.70;;;28.20;63.10;;;;;;4952984;28;20079;-84
2022/08/08 13:21:42;;;;;;;3.28;0.93;;;28.70;61.10;;;;;;4938045;29;20047;-84
2022/08/08 13:24:08;;;;;;;2.95;0.70;;;29.00;59.70;;;;;;4938121;29;20042;-84
2022/08/08 13:26:33;;;;;;;1.77;0.80;;;29.00;60.40;;;;;;4987246;23;20536;-77
2022/08/08 13:29:09;;;;;;;1.95;0.70;;;28.90;59.30;;;;;;4936599;29;20491;-77